Terminal Aerodrome Forecast
Issued by NWS Billings, MT

Home | Current Version | Previous Version | Text Only | Print | Product List | Glossary Off
Versions: 1 2 3 4 5 6 7 8 9 10 11 12 13 14 15 16

000
FTUS45 KBYZ 210337 AAA
TAFMLS
TAF AMD
KMLS 210337Z 2104/2124 32010KT P6SM VCTS SCT090CB BKN150
      TEMPO 2104/2106 VRB20G35KT 3SM +TSRAGS BKN070CB OVC120
     FM210700 30011KT P6SM BKN120
     FM211500 32016G24KT P6SM FEW120=

USA.gov is the U.S. government's official web portal to all federal, state and local government web resources and services.